Time;durP1;ratioP1;P1;durP2;ratioP2;P2;SDS_P1;SDS_P2;PMS_P1;PMS_P2;Temp;Humidity;BMP_temperature;BMP_pressure;BME280_temperature;BME280_humidity;BME280_pressure;Samples;Min_cycle;Max_cycle;Signal;HPM_P1;HPM_P2
2020/12/11 00:00:54;;;;;;;21.08;3.83;;;;;;;8.21;100.00;98224.31;5054747;28;20495;-89
2020/12/11 00:03:20;;;;;;;19.60;3.60;;;;;;;8.24;100.00;98223.13;5055161;28;20058;-88
2020/12/11 00:05:45;;;;;;;24.00;3.72;;;;;;;8.26;100.00;98224.56;5054668;28;20108;-88
2020/12/11 00:08:11;;;;;;;21.10;3.63;;;;;;;8.27;100.00;98239.25;5072192;28;20048;-88
2020/12/11 00:10:36;;;;;;;17.75;3.47;;;;;;;8.30;100.00;98238.88;5054474;28;20490;-88
2020/12/11 00:13:02;;;;;;;16.83;4.32;;;;;;;8.32;100.00;98238.69;5054767;28;20047;-89
2020/12/11 00:15:27;;;;;;;17.90;3.80;;;;;;;8.34;100.00;98239.31;5072665;28;20483;-88
2020/12/11 00:17:53;;;;;;;20.67;4.00;;;;;;;8.35;100.00;98240.94;5054527;28;20082;-89
2020/12/11 00:20:18;;;;;;;20.90;3.92;;;;;;;8.36;100.00;98235.56;5071739;28;20028;-88
2020/12/11 00:22:44;;;;;;;19.00;3.83;;;;;;;8.37;100.00;98242.41;5053752;28;20041;-88
2020/12/11 00:25:09;;;;;;;17.40;4.43;;;;;;;8.38;100.00;98243.19;5054087;28;20475;-87
2020/12/11 00:27:35;;;;;;;16.85;4.20;;;;;;;8.39;100.00;98243.00;5072202;28;20064;-88
2020/12/11 00:30:00;;;;;;;16.70;3.90;;;;;;;8.40;100.00;98241.22;5072082;28;20033;-89
2020/12/11 00:32:27;;;;;;;21.20;4.40;;;;;;;8.42;100.00;98235.78;5054960;28;20119;-88
2020/12/11 00:34:53;;;;;;;24.10;4.50;;;;;;;8.40;100.00;98233.38;5057395;28;20032;-87
2020/12/11 00:37:18;;;;;;;20.73;4.65;;;;;;;8.38;100.00;98233.56;5057680;28;20033;-86
2020/12/11 00:39:43;;;;;;;21.77;4.38;;;;;;;8.38;100.00;98230.94;5072582;28;20035;-88
2020/12/11 00:42:09;;;;;;;28.95;4.78;;;;;;;8.36;100.00;98227.72;5053974;28;20475;-88
2020/12/11 00:44:35;;;;;;;27.58;4.57;;;;;;;8.34;100.00;98218.44;5071643;28;20688;-89
2020/12/11 00:47:02;;;;;;;17.77;3.80;;;;;;;8.30;100.00;98217.97;5053795;28;20031;-88
2020/12/11 00:49:28;;;;;;;23.10;4.85;;;;;;;8.30;100.00;98214.56;5054110;28;20263;-87
2020/12/11 00:51:57;;;;;;;15.88;4.03;;;;;;;8.28;100.00;98211.31;5054037;28;20396;-88
2020/12/11 00:54:22;;;;;;;22.35;5.15;;;;;;;8.27;100.00;98218.34;5053736;28;20032;-86
2020/12/11 00:56:48;;;;;;;18.33;4.35;;;;;;;8.25;100.00;98220.34;5054044;28;20028;-88
2020/12/11 00:59:13;;;;;;;19.83;4.30;;;;;;;8.26;100.00;98224.56;5054897;28;20504;-87
2020/12/11 01:01:39;;;;;;;24.60;4.63;;;;;;;8.28;100.00;98227.78;5054410;28;20056;-87
2020/12/11 01:04:04;;;;;;;20.65;4.32;;;;;;;8.30;100.00;98225.00;5072268;28;20055;-87
2020/12/11 01:06:30;;;;;;;23.05;5.05;;;;;;;8.31;100.00;98226.63;5056138;28;20028;-89
2020/12/11 01:08:55;;;;;;;29.25;5.38;;;;;;;8.32;100.00;98212.56;5075514;28;20230;-87
2020/12/11 01:11:21;;;;;;;26.42;4.72;;;;;;;8.31;100.00;98209.13;5057786;28;20028;-89
2020/12/11 01:13:46;;;;;;;25.63;4.93;;;;;;;8.31;100.00;98209.13;5057584;28;20025;-89
2020/12/11 01:16:12;;;;;;;23.33;6.53;;;;;;;8.31;100.00;98213.56;5057068;28;20506;-89
2020/12/11 01:18:37;;;;;;;24.77;5.00;;;;;;;8.29;100.00;98215.53;5057430;28;20399;-88
2020/12/11 01:21:02;;;;;;;22.23;4.38;;;;;;;8.25;100.00;98206.47;5057136;28;20033;-89
2020/12/11 01:23:28;;;;;;;31.45;5.45;;;;;;;8.22;100.00;98205.06;5057403;28;20060;-87
2020/12/11 01:25:53;;;;;;;21.45;5.25;;;;;;;8.21;100.00;98202.63;5074716;28;20108;-88
2020/12/11 01:28:19;;;;;;;22.15;4.78;;;;;;;8.19;100.00;98197.56;5074829;28;20037;-88
2020/12/11 01:30:44;;;;;;;20.25;4.72;;;;;;;8.16;100.00;98192.72;5056982;28;20036;-89
2020/12/11 01:33:10;;;;;;;26.02;4.78;;;;;;;8.16;100.00;98186.69;5056624;28;20479;-90
2020/12/11 01:35:35;;;;;;;20.98;4.32;;;;;;;8.13;100.00;98189.69;5056675;28;20024;-88
2020/12/11 01:38:00;;;;;;;28.67;6.57;;;;;;;8.12;100.00;98188.88;5056441;28;20028;-88
2020/12/11 01:40:26;;;;;;;28.38;6.13;;;;;;;8.11;100.00;98188.06;5074517;28;20025;-89
2020/12/11 01:42:51;;;;;;;29.05;6.28;;;;;;;8.13;100.00;98187.06;5074460;28;20471;-87
2020/12/11 01:45:17;;;;;;;27.15;5.90;;;;;;;8.13;100.00;98187.06;5074752;28;20108;-87
2020/12/11 01:47:43;;;;;;;28.33;5.85;;;;;;;8.13;100.00;98190.47;5056610;28;20023;-88
2020/12/11 01:50:18;;;;;;;24.80;4.82;;;;;;;8.15;100.00;98191.09;5056780;28;20120;-90
2020/12/11 01:52:45;;;;;;;17.52;5.05;;;;;;;8.16;100.00;98192.72;5056790;28;20384;-89
2020/12/11 01:55:11;;;;;;;25.48;6.03;;;;;;;8.16;100.00;98191.91;5074221;28;20430;-88
2020/12/11 01:57:47;;;;;;;25.90;4.65;;;;;;;8.16;100.00;98197.94;5056348;28;20078;-88
2020/12/11 02:00:13;;;;;;;24.13;4.97;;;;;;;8.15;100.00;98192.91;5074367;28;20086;-89
2020/12/11 02:02:38;;;;;;;22.50;4.43;;;;;;;8.15;100.00;98188.50;5056695;28;20479;-88
2020/12/11 02:05:13;;;;;;;19.80;5.57;;;;;;;8.15;100.00;98188.50;5075032;28;20028;-88
2020/12/11 02:07:39;;;;;;;16.55;5.72;;;;;;;8.15;100.00;98183.28;5080418;28;20047;-89
2020/12/11 02:10:05;;;;;;;16.08;4.60;;;;;;;8.15;100.00;98185.88;5081582;28;20024;-87
2020/12/11 02:12:31;;;;;;;24.08;4.78;;;;;;;8.16;100.00;98184.88;5082391;28;20024;-87
2020/12/11 02:14:57;;;;;;;26.38;4.88;;;;;;;8.15;100.00;98182.47;5081758;28;20100;-88
2020/12/11 02:17:26;;;;;;;27.02;5.68;;;;;;;8.15;100.00;98175.44;5074562;28;20028;-86
2020/12/11 02:19:53;;;;;;;23.48;4.30;;;;;;;8.14;100.00;98175.63;5056744;28;20025;-88
2020/12/11 02:22:18;;;;;;;29.25;4.43;;;;;;;8.12;100.00;98170.59;5056246;28;20032;-87
2020/12/11 02:24:44;;;;;;;24.02;4.40;;;;;;;8.11;100.00;98171.59;5056514;28;20027;-89
2020/12/11 02:27:09;;;;;;;29.42;6.00;;;;;;;8.10;100.00;98175.19;5074020;28;20098;-87
2020/12/11 02:29:35;;;;;;;20.05;3.90;;;;;;;8.07;100.00;98170.34;5056052;28;20115;-87
2020/12/11 02:32:00;;;;;;;18.63;4.45;;;;;;;8.06;100.00;98166.13;5074000;28;20052;-88
2020/12/11 02:34:25;;;;;;;19.48;4.07;;;;;;;8.05;100.00;98161.91;5055861;28;20016;-88
2020/12/11 02:36:51;;;;;;;20.92;4.38;;;;;;;8.05;100.00;98161.91;5073557;28;20031;-87
2020/12/11 02:39:16;;;;;;;25.70;3.80;;;;;;;8.02;100.00;98157.03;5073876;28;20474;-87
2020/12/11 02:41:47;;;;;;;19.50;4.00;;;;;;;8.01;100.00;98161.44;5073280;28;20036;-88
2020/12/11 02:44:12;;;;;;;20.38;3.83;;;;;;;8.00;100.00;98153.81;5055983;28;20502;-89
2020/12/11 02:46:38;;;;;;;21.50;4.43;;;;;;;7.98;100.00;98159.22;5073724;28;20056;-89
2020/12/11 02:49:03;;;;;;;22.92;3.97;;;;;;;7.95;100.00;98154.38;5055641;28;20036;-89
2020/12/11 02:51:29;;;;;;;19.67;3.60;;;;;;;7.94;100.00;98154.56;5055649;28;20024;-86
2020/12/11 02:53:54;;;;;;;21.85;4.40;;;;;;;7.91;100.00;98147.09;5054494;28;20054;-88
2020/12/11 02:56:21;;;;;;;17.33;4.13;;;;;;;7.89;100.00;98146.44;5055513;28;20558;-88
2020/12/11 02:58:46;;;;;;;18.65;4.25;;;;;;;7.86;100.00;98152.06;5055522;28;20020;-89
2020/12/11 03:01:12;;;;;;;19.38;3.72;;;;;;;7.85;100.00;98153.03;5072894;28;20040;-87
2020/12/11 03:03:38;;;;;;;18.83;4.95;;;;;;;7.84;100.00;98141.00;5073277;28;20100;-86
2020/12/11 03:06:03;;;;;;;20.67;4.32;;;;;;;7.81;100.00;98140.38;5055071;28;20028;-89
2020/12/11 03:08:29;;;;;;;13.45;3.40;;;;;;;7.81;100.00;98139.56;5054841;28;20039;-89
2020/12/11 03:10:54;;;;;;;17.88;3.75;;;;;;;7.78;100.00;98139.94;5055183;28;20029;-89
2020/12/11 03:13:20;;;;;;;20.98;3.83;;;;;;;7.76;100.00;98142.75;5072621;28;20146;-89
2020/12/11 03:15:45;;;;;;;20.70;4.13;;;;;;;7.77;100.00;98140.94;5054677;28;20052;-88
2020/12/11 03:18:11;;;;;;;20.90;4.50;;;;;;;7.75;100.00;98138.50;5054529;28;20021;-88
2020/12/11 03:20:36;;;;;;;21.23;4.18;;;;;;;7.74;100.00;98136.91;5072088;28;20033;-87
2020/12/11 03:23:02;;;;;;;19.75;4.60;;;;;;;7.74;100.00;98141.31;5054506;28;20035;-87
2020/12/11 03:25:27;;;;;;;18.00;4.28;;;;;;;7.75;100.00;98137.72;5054391;28;20134;-87
2020/12/11 03:27:52;;;;;;;22.75;3.90;;;;;;;7.73;100.00;98132.69;5054521;28;20020;-86
2020/12/11 03:30:18;;;;;;;22.50;4.95;;;;;;;7.73;100.00;98132.69;5054145;28;20028;-89
2020/12/11 03:32:43;;;;;;;17.25;3.55;;;;;;;7.74;100.00;98133.47;5054454;28;20055;-89
2020/12/11 03:35:09;;;;;;;21.50;3.92;;;;;;;7.72;100.00;98135.44;5054842;28;20593;-87
2020/12/11 03:37:34;;;;;;;17.25;3.78;;;;;;;7.70;100.00;98135.63;5057616;28;20027;-87
2020/12/11 03:40:00;;;;;;;16.10;3.83;;;;;;;7.70;100.00;98137.44;5055333;28;20063;-87
2020/12/11 03:42:26;;;;;;;19.25;3.45;;;;;;;7.70;100.00;98138.25;5037705;28;20041;-89
2020/12/11 03:44:51;;;;;;;21.48;3.95;;;;;;;7.69;100.00;98136.63;5054238;28;20025;-86
2020/12/11 03:47:17;;;;;;;17.90;3.63;;;;;;;7.69;100.00;98128.78;5057182;28;20086;-86
2020/12/11 03:49:42;;;;;;;20.60;3.83;;;;;;;7.67;100.00;98120.34;5064713;28;20502;-87
2020/12/11 03:52:08;;;;;;;16.58;3.50;;;;;;;7.67;100.00;98122.97;5062965;28;20082;-86
2020/12/11 03:54:33;;;;;;;21.42;4.57;;;;;;;7.66;100.00;98129.16;5080151;28;20017;-88
2020/12/11 03:56:58;;;;;;;20.08;4.00;;;;;;;7.65;100.00;98119.72;5054527;28;20029;-89
2020/12/11 03:59:24;;;;;;;23.00;4.38;;;;;;;7.64;100.00;98123.34;5054540;28;20107;-89
2020/12/11 04:01:49;;;;;;;25.10;4.38;;;;;;;7.64;100.00;98118.13;5072068;28;20017;-87
2020/12/11 04:04:15;;;;;;;18.27;4.40;;;;;;;7.63;100.00;98116.50;5072036;28;20032;-88
2020/12/11 04:06:40;;;;;;;20.55;3.70;;;;;;;7.63;100.00;98119.13;5071721;28;20025;-88
2020/12/11 04:09:06;;;;;;;19.55;3.72;;;;;;;7.62;100.00;98112.28;5071748;28;20027;-89
2020/12/11 04:11:31;;;;;;;19.73;5.05;;;;;;;7.62;100.00;98114.09;5054006;28;20558;-89
2020/12/11 04:13:57;;;;;;;23.25;3.90;;;;;;;7.62;100.00;98111.47;5073887;28;20459;-88
2020/12/11 04:16:22;;;;;;;23.20;4.55;;;;;;;7.62;100.00;98114.09;5073519;28;20186;-89
2020/12/11 04:18:47;;;;;;;15.18;3.60;;;;;;;7.61;100.00;98117.69;5056255;28;20432;-89
2020/12/11 04:21:14;;;;;;;27.73;4.97;;;;;;;7.62;100.00;98119.28;5072046;28;20029;-89
2020/12/11 04:23:40;;;;;;;18.77;3.50;;;;;;;7.61;100.00;98109.84;5055551;28;20026;-88
2020/12/11 04:26:06;;;;;;;26.40;3.90;;;;;;;7.61;100.00;98112.47;5074436;28;20024;-86
2020/12/11 04:28:31;;;;;;;27.13;3.78;;;;;;;7.60;100.00;98109.06;5073371;28;20017;-89
2020/12/11 04:30:57;;;;;;;20.63;3.88;;;;;;;7.60;100.00;98111.66;5053925;28;20085;-90
2020/12/11 04:33:22;;;;;;;16.77;3.67;;;;;;;7.61;100.00;98105.44;5071542;28;20053;-88
2020/12/11 04:35:47;;;;;;;21.13;4.40;;;;;;;7.61;100.00;98097.63;5071617;28;20032;-89
2020/12/11 04:38:13;;;;;;;16.60;3.28;;;;;;;7.61;100.00;98099.41;5071923;28;20476;-89
2020/12/11 04:40:38;;;;;;;21.13;3.75;;;;;;;7.62;100.00;98098.44;5054491;28;20060;-89
2020/12/11 04:43:04;;;;;;;16.80;3.67;;;;;;;7.61;100.00;98095.00;5075548;28;20063;-89
2020/12/11 04:45:30;;;;;;;15.32;3.65;;;;;;;7.59;100.00;98094.41;5057524;28;20032;-88
2020/12/11 04:47:56;;;;;;;18.25;4.13;;;;;;;7.59;100.00;98088.38;5057395;28;20032;-88
2020/12/11 04:50:21;;;;;;;17.73;3.80;;;;;;;7.58;100.00;98086.75;5075395;28;20028;-88
2020/12/11 04:52:48;;;;;;;17.23;3.60;;;;;;;7.58;100.00;98090.16;5075476;28;20174;-88
2020/12/11 04:55:19;;;;;;;22.73;3.53;;;;;;;7.56;100.00;98089.53;5075603;28;20486;-89
2020/12/11 04:57:53;;;;;;;17.88;3.92;;;;;;;7.56;100.00;98086.91;5057515;28;20115;-87
2020/12/11 05:00:21;;;;;;;21.70;3.67;;;;;;;7.55;100.00;98085.31;5075156;28;20047;-89
2020/12/11 05:02:47;;;;;;;24.92;4.45;;;;;;;7.56;100.00;98088.72;5075086;28;20028;-88
2020/12/11 05:05:14;;;;;;;22.27;4.03;;;;;;;7.54;100.00;98082.88;5057380;28;20046;-88
2020/12/11 05:07:40;;;;;;;18.02;4.40;;;;;;;7.53;100.00;98084.69;5057423;28;20438;-89
2020/12/11 05:10:07;;;;;;;22.23;3.92;;;;;;;7.52;100.00;98083.06;5075029;28;20468;-89
2020/12/11 05:12:33;;;;;;;14.48;3.38;;;;;;;7.51;100.00;98084.88;5057230;28;20052;-87
2020/12/11 05:15:09;;;;;;;20.80;3.70;;;;;;;7.49;100.00;98083.44;5057038;28;20035;-89
2020/12/11 05:17:37;;;;;;;19.95;3.53;;;;;;;7.48;100.00;98084.44;5060401;28;20029;-87
2020/12/11 05:20:04;;;;;;;16.73;3.33;;;;;;;7.46;100.00;98084.63;5060023;28;20017;-88
2020/12/11 05:22:32;;;;;;;17.58;3.28;;;;;;;7.45;100.00;98077.78;5057053;28;20024;-86
2020/12/11 05:24:58;;;;;;;21.05;3.42;;;;;;;7.45;100.00;98079.59;5059575;28;20045;-87
2020/12/11 05:27:31;;;;;;;20.08;3.97;;;;;;;7.44;100.00;98083.19;5060333;28;20391;-87
2020/12/11 05:29:58;;;;;;;18.15;3.25;;;;;;;7.42;100.00;98074.75;5076171;28;20017;-89
2020/12/11 05:32:40;;;;;;;17.88;3.40;;;;;;;7.41;100.00;98081.75;5074528;28;20089;-89
2020/12/11 05:35:19;;;;;;;18.48;3.58;;;;;;;7.43;100.00;98077.16;5056862;28;20472;-88
2020/12/11 05:37:49;;;;;;;20.08;3.85;;;;;;;7.45;100.00;98083.00;5074484;28;20059;-89
2020/12/11 05:40:22;;;;;;;20.73;4.10;;;;;;;7.45;100.00;98082.19;5056961;28;20028;-90
2020/12/11 05:43:21;;;;;;;21.52;3.80;;;;;;;7.45;100.00;98082.19;5074417;28;20047;-90
2020/12/11 05:45:46;;;;;;;13.20;3.13;;;;;;;7.46;100.00;98079.41;5003239;28;20047;-88
2020/12/11 05:48:12;;;;;;;20.08;3.83;;;;;;;7.47;100.00;98085.44;5074601;28;20415;-89
2020/12/11 05:50:37;;;;;;;20.23;3.80;;;;;;;7.48;100.00;98089.66;5074095;28;20779;-89
2020/12/11 05:53:03;;;;;;;23.17;4.10;;;;;;;7.47;100.00;98085.44;5056080;28;20058;-88
2020/12/11 05:55:28;;;;;;;15.73;2.75;;;;;;;7.46;100.00;98083.81;5056514;28;20032;-88
2020/12/11 05:57:56;;;;;;;17.70;3.65;;;;;;;7.45;100.00;98083.00;5073817;28;20021;-89
2020/12/11 06:00:22;;;;;;;20.70;3.72;;;;;;;7.45;100.00;98090.03;5056105;28;20479;-89
2020/12/11 06:02:49;;;;;;;17.95;3.65;;;;;;;7.46;100.00;98089.03;5056766;28;20395;-89
2020/12/11 06:05:16;;;;;;;18.42;2.97;;;;;;;7.45;100.00;98084.81;5057816;28;20032;-88
2020/12/11 06:07:46;;;;;;;15.93;3.10;;;;;;;7.44;100.00;98093.63;5076011;28;20044;-89
2020/12/11 06:10:19;;;;;;;18.85;3.30;;;;;;;7.45;100.00;98090.84;5075768;28;20127;-88
2020/12/11 06:12:45;;;;;;;15.75;3.22;;;;;;;7.47;100.00;98101.06;5075925;28;20032;-88
2020/12/11 06:15:30;;;;;;;12.88;3.28;;;;;;;7.46;100.00;98097.66;5058138;28;20162;-87
2020/12/11 06:18:17;;;;;;;18.65;3.30;;;;;;;7.46;100.00;98107.28;5058647;28;20495;-89
2020/12/11 06:20:45;;;;;;;12.43;2.53;;;;;;;7.47;100.00;98103.69;5075776;28;20085;-88
2020/12/11 06:23:40;;;;;;;18.13;2.90;;;;;;;7.44;100.00;98104.88;5073867;28;20032;-87
2020/12/11 06:26:06;;;;;;;14.30;2.60;;;;;;;7.43;100.00;98099.84;5053023;28;20407;-86
2020/12/11 06:28:34;;;;;;;18.05;4.18;;;;;;;7.41;100.00;98101.78;5074656;28;20025;-87
2020/12/11 06:31:00;;;;;;;18.90;3.92;;;;;;;7.40;100.00;98103.59;5073915;28;20032;-87
2020/12/11 06:33:33;;;;;;;14.15;2.83;;;;;;;7.36;100.00;98102.34;5074027;28;20378;-87
2020/12/11 06:36:00;;;;;;;16.88;3.50;;;;;;;7.36;100.00;98109.38;5075800;28;20025;-89
2020/12/11 06:38:49;;;;;;;18.80;3.13;;;;;;;7.33;100.00;98107.13;5060141;28;20017;-87
2020/12/11 06:41:27;;;;;;;13.38;2.95;;;;;;;7.31;100.00;98112.53;5058698;28;20024;-87
2020/12/11 06:43:56;;;;;;;16.65;3.42;;;;;;;7.31;100.00;98119.56;5056089;28;20440;-89
2020/12/11 06:46:24;;;;;;;14.82;2.97;;;;;;;7.29;100.00;98106.69;5056516;28;20524;-87
2020/12/11 06:49:11;;;;;;;21.15;4.18;;;;;;;7.27;100.00;98111.28;5073964;28;20096;-87
2020/12/11 06:51:46;;;;;;;19.52;3.53;;;;;;;7.27;100.00;98115.69;5055991;28;20494;-90
2020/12/11 06:54:31;;;;;;;13.93;3.30;;;;;;;7.25;100.00;98112.44;5073825;28;20020;-87
2020/12/11 06:56:59;;;;;;;17.27;3.38;;;;;;;7.25;100.00;98109.84;5039112;28;20021;-85
2020/12/11 06:59:39;;;;;;;17.02;2.83;;;;;;;7.25;100.00;98112.44;5055372;28;20388;-90
2020/12/11 07:02:07;;;;;;;12.88;3.42;;;;;;;7.25;100.00;98115.84;5055195;28;20030;-90
2020/12/11 07:04:43;;;;;;;9.60;2.60;;;;;;;7.23;100.00;98117.84;5054444;28;20024;-90
2020/12/11 07:07:09;;;;;;;16.55;2.70;;;;;;;7.24;100.00;98118.66;5072933;28;20107;-91
2020/12/11 07:09:41;;;;;;;14.57;2.67;;;;;;;7.25;100.00;98121.06;5073129;28;20028;-90
2020/12/11 07:12:07;;;;;;;20.00;3.60;;;;;;;7.25;100.00;98122.88;5056264;28;20531;-87
2020/12/11 07:14:32;;;;;;;19.40;2.80;;;;;;;7.26;100.00;98124.47;5072699;28;20028;-88
2020/12/11 07:16:58;;;;;;;18.02;3.28;;;;;;;7.26;100.00;98125.31;5054773;28;20052;-88
2020/12/11 07:19:23;;;;;;;15.40;3.38;;;;;;;7.28;100.00;98130.34;5072988;28;20081;-89
2020/12/11 07:21:49;;;;;;;9.93;2.30;;;;;;;7.29;100.00;98126.75;5072750;28;20025;-88
2020/12/11 07:24:15;;;;;;;15.10;3.45;;;;;;;7.32;100.00;98121.16;5055518;28;20020;-88
2020/12/11 07:26:41;;;;;;;13.05;2.45;;;;;;;7.32;100.00;98115.94;5072783;28;20016;-88
2020/12/11 07:29:13;;;;;;;14.15;3.08;;;;;;;7.34;100.00;98124.41;5056384;28;20108;-87
2020/12/11 07:31:41;;;;;;;17.02;2.80;;;;;;;7.35;100.00;98120.78;5072651;28;20028;-88
2020/12/11 07:34:16;;;;;;;12.85;2.65;;;;;;;7.35;100.00;98129.44;5072594;28;20062;-88
2020/12/11 07:36:57;;;;;;;16.30;2.90;;;;;;;7.37;100.00;98130.03;5055431;28;20036;-88
2020/12/11 07:39:26;;;;;;;17.40;3.83;;;;;;;7.38;100.00;98129.06;5072702;28;20103;-88
2020/12/11 07:41:52;;;;;;;19.80;3.38;;;;;;;7.39;100.00;98127.25;5074918;28;20032;-87
2020/12/11 07:44:26;;;;;;;18.20;3.20;;;;;;;7.40;100.00;98126.25;5072501;28;20032;-88
2020/12/11 07:46:53;;;;;;;16.27;3.78;;;;;;;7.42;100.00;98138.16;5054864;28;20021;-89
2020/12/11 07:49:18;;;;;;;17.08;3.28;;;;;;;7.43;100.00;98142.38;5054827;28;20511;-89
2020/12/11 07:51:48;;;;;;;22.95;4.10;;;;;;;7.44;100.00;98137.97;5071984;28;20039;-89
2020/12/11 07:54:14;;;;;;;23.05;4.97;;;;;;;7.44;100.00;98149.19;5072186;28;20099;-87
2020/12/11 07:56:40;;;;;;;22.50;4.65;;;;;;;7.45;100.00;98145.59;5054804;28;20052;-87
2020/12/11 07:59:10;;;;;;;18.55;4.32;;;;;;;7.46;100.00;98143.81;5055370;28;20042;-87
2020/12/11 08:01:36;;;;;;;22.27;5.30;;;;;;;7.47;100.00;98148.84;5072059;28;20048;-88
2020/12/11 08:04:02;;;;;;;20.98;5.22;;;;;;;7.48;100.00;98158.28;5055064;28;20025;-88
2020/12/11 08:06:27;;;;;;;24.17;4.43;;;;;;;7.48;100.00;98149.63;5054930;28;20038;-87
2020/12/11 08:08:53;;;;;;;20.85;4.25;;;;;;;7.50;100.00;98153.69;5072366;28;20060;-88
2020/12/11 08:11:25;;;;;;;24.33;5.07;;;;;;;7.55;100.00;98160.13;5055690;28;20035;-87
2020/12/11 08:14:02;;;;;;;23.45;5.47;;;;;;;7.55;100.00;98160.94;5054940;28;20028;-88
2020/12/11 08:16:29;;;;;;;21.27;5.00;;;;;;;7.57;100.00;98163.38;5076392;28;20094;-87
2020/12/11 08:18:55;;;;;;;22.45;4.82;;;;;;;7.58;100.00;98160.59;5080735;28;20028;-88
2020/12/11 08:21:29;;;;;;;25.00;5.07;;;;;;;7.60;100.00;98161.22;5076889;28;20032;-89
2020/12/11 08:23:54;;;;;;;24.88;5.40;;;;;;;7.61;100.00;98159.44;5058781;28;20060;-87
2020/12/11 08:26:20;;;;;;;19.42;4.57;;;;;;;7.62;100.00;98161.03;5058118;28;20027;-87
2020/12/11 08:28:48;;;;;;;22.73;4.93;;;;;;;7.64;100.00;98169.50;5059287;28;20025;-87
2020/12/11 08:31:24;;;;;;;22.25;4.82;;;;;;;7.63;100.00;98166.06;5078879;28;20035;-86
2020/12/11 08:34:00;;;;;;;30.08;5.07;;;;;;;7.65;100.00;98165.88;5078158;28;20028;-88
2020/12/11 08:36:27;;;;;;;27.52;5.05;;;;;;;7.64;100.00;98180.72;5061733;28;20021;-86
2020/12/11 08:39:05;;;;;;;16.27;3.78;;;;;;;7.63;100.00;98176.50;5094180;28;20012;-88
2020/12/11 08:41:33;;;;;;;21.73;5.28;;;;;;;7.62;100.00;98185.31;5065393;28;20553;-86
2020/12/11 08:44:00;;;;;;;16.20;3.63;;;;;;;7.61;100.00;98181.09;5060007;28;20128;-87
2020/12/11 08:46:56;;;;;;;24.23;4.53;;;;;;;7.60;100.00;98195.13;5080995;28;20020;-87
2020/12/11 08:49:29;;;;;;;24.35;4.75;;;;;;;7.59;100.00;98196.13;5077422;28;20446;-87
2020/12/11 08:51:54;;;;;;;18.80;4.22;;;;;;;7.59;100.00;98201.34;5061264;28;20028;-88
2020/12/11 08:54:27;;;;;;;23.70;4.20;;;;;;;7.59;100.00;98203.97;5061691;28;20039;-87
2020/12/11 08:56:53;;;;;;;19.75;3.92;;;;;;;7.61;100.00;98203.78;5059655;28;20100;-86
2020/12/11 08:59:18;;;;;;;25.13;4.10;;;;;;;7.61;100.00;98201.16;5061961;28;20051;-87
2020/12/11 09:01:44;;;;;;;24.77;4.65;;;;;;;7.62;100.00;98200.97;5061837;28;20039;-87
2020/12/11 09:04:09;;;;;;;27.17;5.15;;;;;;;7.65;100.00;98205.81;5077605;28;20463;-87
2020/12/11 09:06:35;;;;;;;24.25;4.70;;;;;;;7.68;100.00;98210.69;5058832;28;20387;-89
2020/12/11 09:09:01;;;;;;;26.95;5.28;;;;;;;7.71;100.00;98215.53;5077523;28;20025;-89
2020/12/11 09:11:27;;;;;;;26.55;5.40;;;;;;;7.72;100.00;98214.53;5060839;28;20028;-87
2020/12/11 09:13:52;;;;;;;21.80;4.95;;;;;;;7.74;100.00;98220.41;5062251;28;20021;-88
2020/12/11 09:16:17;;;;;;;24.88;5.72;;;;;;;7.76;100.00;98218.41;5060630;28;20312;-87
2020/12/11 09:18:44;;;;;;;22.17;5.90;;;;;;;7.77;100.00;98217.41;5060693;28;20024;-88
2020/12/11 09:21:09;;;;;;;22.83;5.00;;;;;;;7.81;100.00;98223.88;5081197;28;20028;-89
2020/12/11 09:23:35;;;;;;;25.17;5.60;;;;;;;7.84;100.00;98227.91;5062176;28;20029;-86
2020/12/11 09:26:00;;;;;;;30.05;4.93;;;;;;;7.85;100.00;98224.31;5062247;28;20017;-88
2020/12/11 09:28:26;;;;;;;24.73;4.45;;;;;;;7.89;100.00;98229.97;5067081;28;20027;-87
2020/12/11 09:30:52;;;;;;;25.27;4.88;;;;;;;7.92;100.00;98237.47;5081481;28;20024;-88
2020/12/11 09:33:20;;;;;;;21.60;6.00;;;;;;;7.94;100.00;98235.47;5096998;28;20068;-89
2020/12/11 09:35:46;;;;;;;26.73;6.07;;;;;;;7.96;100.00;98239.50;5081997;28;20027;-89
2020/12/11 09:38:13;;;;;;;21.85;4.70;;;;;;;7.98;100.00;98234.91;5082565;28;20032;-89
2020/12/11 09:54:05;;;;;;;25.75;5.25;;;;;;;8.07;100.00;98256.50;5075188;28;20028;-90
2020/12/11 09:56:31;;;;;;;26.23;4.95;;;;;;;8.10;100.00;98269.19;5076577;28;20080;-88
2020/12/11 09:59:03;;;;;;;20.58;4.10;;;;;;;8.11;100.00;98268.19;5076400;28;20111;-86
2020/12/11 10:01:52;;;;;;;18.65;4.28;;;;;;;8.12;100.00;98272.41;5057607;28;20506;-86
2020/12/11 10:04:17;;;;;;;20.23;3.90;;;;;;;8.15;100.00;98271.25;5057898;28;20075;-89
2020/12/11 10:06:43;;;;;;;13.95;3.72;;;;;;;8.16;100.00;98273.66;5056864;28;20028;-88
2020/12/11 10:09:08;;;;;;;17.05;4.13;;;;;;;8.19;100.00;98272.47;5074727;28;20029;-87
2020/12/11 10:11:34;;;;;;;19.08;3.75;;;;;;;8.21;100.00;98278.34;5074210;28;20029;-89
2020/12/11 10:14:22;;;;;;;18.20;3.75;;;;;;;8.21;100.00;98275.75;5073639;28;20024;-89
2020/12/11 10:16:52;;;;;;;22.35;4.53;;;;;;;8.21;100.00;98280.97;5056997;28;20127;-88
2020/12/11 10:19:19;;;;;;;14.85;3.78;;;;;;;8.18;100.00;98287.34;5075110;28;20020;-89
2020/12/11 10:21:46;;;;;;;13.75;3.50;;;;;;;8.18;100.00;98302.19;5057566;28;20114;-89
2020/12/11 10:24:12;;;;;;;25.75;3.90;;;;;;;8.17;100.00;98298.78;5076160;28;20029;-87
2020/12/11 10:26:39;;;;;;;19.55;3.42;;;;;;;8.16;100.00;98302.38;5081824;28;20110;-89
2020/12/11 10:29:04;;;;;;;22.67;4.10;;;;;;;8.16;100.00;98298.97;5057108;28;20497;-89
2020/12/11 10:31:30;;;;;;;17.40;3.35;;;;;;;8.16;100.00;98304.19;5074453;28;20211;-89
2020/12/11 10:33:57;;;;;;;18.50;4.03;;;;;;;8.14;100.00;98309.59;5073729;28;20093;-88
2020/12/11 10:36:28;;;;;;;18.40;3.90;;;;;;;8.14;100.00;98311.41;5055991;28;20330;-87
2020/12/11 10:38:53;;;;;;;16.33;3.67;;;;;;;8.11;100.00;98309.97;5055825;28;20033;-88
2020/12/11 10:41:21;;;;;;;17.30;4.60;;;;;;;8.11;100.00;98317.81;5074609;28;20085;-87
2020/12/11 10:43:47;;;;;;;13.50;4.10;;;;;;;8.08;100.00;98320.78;5056529;28;20107;-88
2020/12/11 10:46:13;;;;;;;14.40;4.03;;;;;;;8.07;100.00;98321.78;5074112;28;20020;-88
2020/12/11 10:48:38;;;;;;;17.50;3.47;;;;;;;8.05;100.00;98329.78;5056306;28;20399;-87
2020/12/11 10:51:03;;;;;;;15.55;3.47;;;;;;;8.05;100.00;98332.41;5057597;28;20017;-87
2020/12/11 10:53:29;;;;;;;14.07;4.40;;;;;;;8.06;100.00;98328.00;5061449;28;20036;-89
2020/12/11 10:55:54;;;;;;;18.42;4.82;;;;;;;8.06;100.00;98328.00;5063422;28;20099;-87
2020/12/11 10:58:20;;;;;;;17.92;3.95;;;;;;;8.06;100.00;98333.22;5094947;28;20034;-90
2020/12/11 11:00:46;;;;;;;17.27;3.53;;;;;;;8.06;100.00;98344.47;5066330;28;20375;-87
2020/12/11 11:03:12;;;;;;;17.25;3.95;;;;;;;8.04;100.00;98337.78;5081643;28;20033;-86
2020/12/11 11:05:38;;;;;;;16.38;4.13;;;;;;;8.04;100.00;98343.00;5057372;28;20372;-89
2020/12/11 11:08:04;;;;;;;19.88;4.22;;;;;;;8.05;100.00;98345.47;5057230;28;20028;-89
2020/12/11 11:10:40;;;;;;;18.40;3.67;;;;;;;8.04;100.00;98337.78;5056318;28;20021;-89
2020/12/11 11:13:18;;;;;;;21.17;4.43;;;;;;;8.04;100.00;98340.41;5074942;28;20020;-87
2020/12/11 11:15:49;;;;;;;21.25;5.22;;;;;;;8.06;100.00;98338.44;5056483;28;20052;-89
2020/12/11 11:28:36;;;;;;;21.65;3.97;;;;;;;8.08;100.00;98354.72;5073717;28;20441;-88
2020/12/11 11:31:02;;;;;;;13.95;3.72;;;;;;;8.08;100.00;98355.53;5056452;28;20017;-87
2020/12/11 11:33:28;;;;;;;18.77;4.07;;;;;;;8.08;100.00;98359.94;5055621;28;20020;-88
2020/12/11 11:35:53;;;;;;;16.90;3.40;;;;;;;8.04;100.00;98363.88;5073479;28;20025;-88
2020/12/11 11:38:19;;;;;;;26.42;3.88;;;;;;;8.01;100.00;98354.63;5056656;28;20069;-88
2020/12/11 11:40:47;;;;;;;16.75;4.05;;;;;;;8.02;100.00;98360.66;5056213;28;20467;-89
2020/12/11 11:43:15;;;;;;;20.13;4.25;;;;;;;8.01;100.00;98359.03;5055276;28;20420;-89
2020/12/11 11:45:40;;;;;;;22.77;4.20;;;;;;;8.01;100.00;98359.03;5055589;28;20028;-88
2020/12/11 11:48:09;;;;;;;18.52;4.93;;;;;;;8.01;100.00;98357.22;5055898;28;20078;-88
2020/12/11 11:50:56;;;;;;;19.83;3.38;;;;;;;8.01;100.00;98356.44;5055096;28;20021;-87